Time;durP1;ratioP1;P1;durP2;ratioP2;P2;SDS_P1;SDS_P2;PMS_P1;PMS_P2;Temp;Humidity;BMP_temperature;BMP_pressure;BME280_temperature;BME280_humidity;BME280_pressure;Samples;Min_cycle;Max_cycle;Signal;HPM_P1;HPM_P2
2023/08/20 00:02:07;;;;;;;12.23;5.35;;;;;;;21.32;100.00;101925.53;4786864;29;20047;-66
2023/08/20 00:04:36;;;;;;;11.98;5.65;;;;;;;21.20;100.00;101926.91;4808138;29;20058;-65
2023/08/20 00:07:07;;;;;;;12.95;5.60;;;;;;;21.09;100.00;101930.22;4791488;29;20073;-65
2023/08/20 00:09:35;;;;;;;12.60;5.55;;;;;;;20.98;100.00;101940.72;4807354;29;20492;-65
2023/08/20 00:12:05;;;;;;;13.90;5.72;;;;;;;20.98;100.00;101946.28;4807840;29;20059;-65
2023/08/20 00:14:53;;;;;;;12.63;5.65;;;;;;;21.01;100.00;101952.00;4817801;29;20054;-65
2023/08/20 00:17:21;;;;;;;12.90;5.70;;;;;;;21.03;100.00;101952.50;4807745;29;20058;-66
2023/08/20 00:19:50;;;;;;;12.35;5.50;;;;;;;21.05;100.00;101947.47;4820437;29;20424;-65
2023/08/20 00:22:18;;;;;;;11.50;5.38;;;;;;;21.06;100.00;101937.22;4807632;29;20051;-65
2023/08/20 00:24:46;;;;;;;11.35;5.65;;;;;;;21.04;100.00;101939.47;4776653;29;20404;-65
2023/08/20 00:27:14;;;;;;;11.20;4.90;;;;;;;21.01;100.00;101945.63;4791532;29;20607;-66
2023/08/20 00:29:42;;;;;;;10.32;5.10;;;;;;;21.01;100.00;101951.19;4798704;29;20062;-66
2023/08/20 00:32:10;;;;;;;13.27;6.07;;;;;;;20.96;100.00;101948.53;4779241;29;20066;-66
2023/08/20 00:34:37;;;;;;;14.85;5.40;;;;;;;20.88;100.00;101946.47;4791602;29;20059;-67
2023/08/20 00:37:05;;;;;;;13.85;5.82;;;;;;;20.78;100.00;101942.81;4807657;29;20050;-67
2023/08/20 00:39:33;;;;;;;14.13;5.63;;;;;;;20.69;100.00;101939.13;4776587;29;20122;-65
2023/08/20 00:42:01;;;;;;;15.27;6.00;;;;;;;20.65;100.00;101943.63;4798803;29;20062;-65
2023/08/20 00:44:28;;;;;;;12.13;5.68;;;;;;;20.58;100.00;101948.78;4791515;29;20058;-66
2023/08/20 00:46:57;;;;;;;10.63;5.38;;;;;;;20.54;100.00;101956.00;4807352;29;20065;-65
2023/08/20 00:49:25;;;;;;;10.38;5.20;;;;;;;20.59;100.00;101961.50;4805363;29;20403;-66
2023/08/20 00:51:53;;;;;;;12.00;5.75;;;;;;;20.58;100.00;101960.66;4794774;29;20055;-65
2023/08/20 00:54:21;;;;;;;15.32;5.60;;;;;;;20.59;100.00;101964.28;4807395;29;20047;-65
2023/08/20 00:56:50;;;;;;;11.80;5.72;;;;;;;20.63;100.00;101963.31;4791344;29;20055;-65
2023/08/20 00:59:18;;;;;;;14.48;5.28;;;;;;;20.62;100.00;101964.47;4783452;29;20077;-65
2023/08/20 01:01:46;;;;;;;14.13;5.18;;;;;;;20.62;100.00;101974.72;4782070;29;20051;-65
2023/08/20 01:04:14;;;;;;;15.23;5.80;;;;;;;20.60;100.00;101974.22;4807282;29;20062;-64
2023/08/20 01:07:09;;;;;;;12.20;5.47;;;;;;;20.60;100.00;101979.75;4805465;29;20115;-64
2023/08/20 01:09:58;;;;;;;14.13;5.45;;;;;;;20.63;100.00;101976.34;4791032;29;20054;-66
2023/08/20 01:12:26;;;;;;;10.40;5.60;;;;;;;20.68;100.00;101986.50;4772838;30;20446;-65
2023/08/20 01:14:54;;;;;;;11.98;5.10;;;;;;;20.71;100.00;102000.59;4773744;30;20078;-65
2023/08/20 01:17:22;;;;;;;11.00;4.95;;;;;;;20.75;100.00;102001.59;4805240;29;20051;-65
2023/08/20 01:19:50;;;;;;;11.52;4.90;;;;;;;20.79;100.00;101999.84;4807360;29;20051;-65
2023/08/20 01:22:27;;;;;;;9.00;5.05;;;;;;;20.84;100.00;102004.47;4806659;29;20050;-66
2023/08/20 01:25:32;;;;;;;12.93;5.55;;;;;;;20.89;100.00;102011.84;4792741;29;20054;-65
2023/08/20 01:28:27;;;;;;;14.20;5.53;;;;;;;20.92;100.00;102002.91;4807726;29;20051;-65
2023/08/20 01:30:57;;;;;;;8.88;4.65;;;;;;;20.95;100.00;102007.81;4800286;29;20051;-65
2023/08/20 01:33:25;;;;;;;13.45;6.13;;;;;;;20.94;100.00;102009.78;4804352;29;20081;-64
2023/08/20 01:35:54;;;;;;;14.80;6.63;;;;;;;20.94;100.00;102011.75;4806520;29;20063;-65
2023/08/20 01:38:22;;;;;;;16.73;6.32;;;;;;;20.91;100.00;102004.88;4796938;29;20046;-65
2023/08/20 01:40:50;;;;;;;12.35;5.82;;;;;;;20.92;100.00;102011.22;4799829;29;20415;-65
2023/08/20 01:43:17;;;;;;;11.00;5.43;;;;;;;20.91;100.00;102009.59;4806506;29;20411;-65
2023/08/20 01:45:46;;;;;;;13.38;6.15;;;;;;;20.92;100.00;102002.91;4775618;29;20046;-65
2023/08/20 01:48:15;;;;;;;11.85;6.05;;;;;;;20.89;100.00;102004.34;4790294;29;20521;-65
2023/08/20 01:50:45;;;;;;;15.82;6.70;;;;;;;20.88;100.00;101999.09;4804985;29;20098;-65
2023/08/20 01:53:14;;;;;;;15.20;6.80;;;;;;;20.84;100.00;102001.69;4806184;29;20051;-65
2023/08/20 01:55:42;;;;;;;15.35;6.45;;;;;;;20.81;100.00;102002.31;4790435;29;20103;-65
2023/08/20 01:58:10;;;;;;;14.77;6.78;;;;;;;20.80;100.00;102007.00;4759854;29;20071;-65
2023/08/20 02:00:38;;;;;;;12.95;6.22;;;;;;;20.79;100.00;102015.66;4794794;29;20039;-65
2023/08/20 02:03:06;;;;;;;15.40;6.85;;;;;;;20.75;100.00;102009.91;4806349;29;20372;-65
2023/08/20 02:05:34;;;;;;;12.57;5.68;;;;;;;20.73;100.00;102012.16;4793207;29;20055;-65
2023/08/20 02:08:02;;;;;;;13.35;6.00;;;;;;;20.71;100.00;102022.75;4789736;29;20227;-66
2023/08/20 02:10:32;;;;;;;14.93;6.55;;;;;;;20.70;100.00;102023.03;4789736;29;20059;-65
2023/08/20 02:13:00;;;;;;;15.88;6.68;;;;;;;20.68;100.00;102037.19;4790055;29;20133;-65
2023/08/20 02:15:27;;;;;;;14.40;6.63;;;;;;;20.67;100.00;102041.09;4794948;29;20050;-65
2023/08/20 02:17:58;;;;;;;10.45;5.38;;;;;;;20.67;100.00;102046.63;4790172;29;20604;-65
2023/08/20 02:20:27;;;;;;;13.10;5.47;;;;;;;20.70;100.00;102046.00;4806406;29;20051;-65
2023/08/20 02:22:55;;;;;;;10.90;5.50;;;;;;;20.72;100.00;102043.75;4806233;29;20054;-65
2023/08/20 02:25:24;;;;;;;14.20;6.10;;;;;;;20.75;100.00;102039.56;4775309;29;20055;-65
2023/08/20 02:27:55;;;;;;;12.90;5.47;;;;;;;20.76;100.00;102038.44;4805063;29;20059;-66
2023/08/20 02:30:22;;;;;;;13.00;5.78;;;;;;;20.75;100.00;102034.81;4805676;29;20057;-65
2023/08/20 02:32:50;;;;;;;14.10;6.13;;;;;;;20.74;100.00;102035.16;4789353;29;20450;-66
2023/08/20 02:35:18;;;;;;;14.07;6.18;;;;;;;20.72;100.00;102032.69;4806903;29;20070;-66
2023/08/20 02:37:50;;;;;;;13.05;6.18;;;;;;;20.71;100.00;102035.75;4806306;29;20050;-67
2023/08/20 02:40:19;;;;;;;10.60;5.18;;;;;;;20.68;100.00;102030.81;4799246;29;20061;-65
2023/08/20 02:42:47;;;;;;;15.98;6.88;;;;;;;20.67;100.00;102035.56;4792070;29;20051;-65
2023/08/20 02:45:15;;;;;;;16.20;7.32;;;;;;;20.60;100.00;102035.13;4805866;29;20051;-66
2023/08/20 02:47:42;;;;;;;15.35;6.63;;;;;;;20.53;100.00;102029.97;4793483;29;20111;-66
2023/08/20 02:50:10;;;;;;;14.25;6.32;;;;;;;20.48;100.00;102037.56;4797713;29;20055;-66
2023/08/20 02:52:38;;;;;;;14.50;5.85;;;;;;;20.44;100.00;102023.50;4808950;29;20130;-66
2023/08/20 02:55:06;;;;;;;14.70;7.20;;;;;;;20.43;100.00;102022.69;4801453;29;20061;-64
2023/08/20 02:57:34;;;;;;;15.25;6.50;;;;;;;20.41;100.00;102027.69;4793328;29;20514;-66
2023/08/20 03:00:02;;;;;;;13.45;6.57;;;;;;;20.41;100.00;102015.81;4786654;29;20047;-65
2023/08/20 03:02:30;;;;;;;13.48;7.10;;;;;;;20.38;100.00;102022.78;4792496;29;20055;-65
2023/08/20 03:04:58;;;;;;;11.63;6.40;;;;;;;20.34;100.00;102021.72;4796482;29;20042;-65
2023/08/20 03:07:27;;;;;;;15.70;6.75;;;;;;;20.33;100.00;102019.28;4810530;29;20080;-65
2023/08/20 03:09:55;;;;;;;13.27;6.63;;;;;;;20.31;100.00;102014.03;4798182;29;20054;-65
2023/08/20 03:12:23;;;;;;;18.52;6.63;;;;;;;20.27;100.00;102018.53;4809114;29;20063;-66
2023/08/20 03:14:50;;;;;;;16.30;6.25;;;;;;;20.23;100.00;102003.69;4792686;29;20046;-66
2023/08/20 03:17:18;;;;;;;11.00;5.75;;;;;;;20.22;100.00;102005.63;4793283;29;20078;-64
2023/08/20 03:19:56;;;;;;;12.15;5.75;;;;;;;20.23;100.00;102009.22;4801365;29;20103;-66
2023/08/20 03:22:25;;;;;;;9.93;5.38;;;;;;;20.26;100.00;102018.88;4809596;29;20059;-65
2023/08/20 03:24:54;;;;;;;11.43;5.50;;;;;;;20.25;100.00;102012.47;4792967;29;20504;-65
2023/08/20 03:27:21;;;;;;;11.68;6.10;;;;;;;20.25;100.00;102015.25;4823739;29;20043;-64
2023/08/20 03:29:49;;;;;;;12.15;6.25;;;;;;;20.25;100.00;102017.19;4783719;29;20127;-65
2023/08/20 03:32:18;;;;;;;10.98;5.72;;;;;;;20.22;100.00;102013.91;4818708;29;20055;-62
2023/08/20 03:34:45;;;;;;;12.45;6.18;;;;;;;20.24;100.00;102015.56;4816950;29;20506;-65
2023/08/20 03:37:17;;;;;;;11.18;5.65;;;;;;;20.19;100.00;102013.72;4794962;29;20038;-59
2023/08/20 03:39:46;;;;;;;12.63;6.10;;;;;;;20.15;100.00;102018.22;4824924;29;20051;-58
2023/08/20 03:42:14;;;;;;;12.75;6.30;;;;;;;20.10;100.00;102007.22;4824511;29;20085;-61
2023/08/20 03:44:41;;;;;;;14.00;6.57;;;;;;;20.06;100.00;102011.72;4820136;29;20065;-64
2023/08/20 03:47:09;;;;;;;13.90;6.75;;;;;;;20.02;100.00;102010.72;4790163;29;20471;-64
2023/08/20 03:49:38;;;;;;;12.13;6.00;;;;;;;19.98;100.00;102011.28;4795190;29;20046;-65
2023/08/20 03:52:07;;;;;;;11.80;5.80;;;;;;;19.94;100.00;102018.56;4777102;29;20054;-65
2023/08/20 03:54:35;;;;;;;13.75;5.95;;;;;;;19.92;100.00;102020.81;4809092;29;20047;-65
2023/08/20 03:57:02;;;;;;;13.80;6.45;;;;;;;19.88;100.00;102018.97;4777289;29;20051;-66
2023/08/20 03:59:31;;;;;;;13.30;6.40;;;;;;;19.84;100.00;102021.50;4792071;29;20058;-65
2023/08/20 04:01:59;;;;;;;11.60;5.60;;;;;;;19.83;100.00;102022.63;4790877;29;20495;-66
2023/08/20 04:04:27;;;;;;;15.07;6.90;;;;;;;19.77;100.00;102023.81;4806454;29;20043;-65
2023/08/20 04:06:55;;;;;;;11.30;6.20;;;;;;;19.72;100.00;102023.91;4805856;29;20844;-65
2023/08/20 04:09:23;;;;;;;12.25;5.90;;;;;;;19.70;100.00;102029.75;4808427;29;20058;-66
2023/08/20 04:11:51;;;;;;;11.13;5.95;;;;;;;19.73;100.00;102033.84;4811140;29;20052;-66
2023/08/20 04:14:19;;;;;;;11.15;6.38;;;;;;;19.75;100.00;102037.16;4809996;29;20055;-66
2023/08/20 04:16:47;;;;;;;10.43;6.20;;;;;;;19.76;100.00;102033.25;4812165;29;20062;-66
2023/08/20 04:19:14;;;;;;;10.15;5.57;;;;;;;19.78;100.00;102036.53;4823722;29;20058;-67
2023/08/20 04:21:42;;;;;;;12.32;5.97;;;;;;;19.79;100.00;102038.16;4793710;29;20056;-67
2023/08/20 04:24:11;;;;;;;11.30;5.50;;;;;;;19.79;100.00;102039.00;4808108;29;20062;-66
2023/08/20 04:26:40;;;;;;;12.48;5.90;;;;;;;19.76;100.00;102038.78;4813444;29;20055;-66
2023/08/20 04:29:08;;;;;;;14.00;6.40;;;;;;;19.75;100.00;102037.16;4775725;29;20410;-67
2023/08/20 04:31:36;;;;;;;12.88;6.70;;;;;;;19.75;100.00;102045.44;4790546;29;20054;-67
2023/08/20 04:34:08;;;;;;;12.05;5.57;;;;;;;19.78;100.00;102047.59;4776030;29;20063;-65
2023/08/20 04:36:51;;;;;;;12.90;6.10;;;;;;;19.84;100.00;102040.84;4778981;29;20050;-66
2023/08/20 04:39:19;;;;;;;17.10;6.07;;;;;;;19.79;100.00;102043.69;4809082;29;20051;-66
2023/08/20 04:41:53;;;;;;;15.00;6.20;;;;;;;19.74;100.00;102046.56;4770701;29;20054;-66
2023/08/20 04:44:22;;;;;;;12.70;6.20;;;;;;;19.68;100.00;102053.28;4790623;29;20096;-66
2023/08/20 04:46:50;;;;;;;12.20;5.47;;;;;;;19.64;100.00;102052.22;4788680;29;20058;-65
2023/08/20 04:49:19;;;;;;;12.68;5.75;;;;;;;19.65;100.00;102048.31;4784747;29;20054;-66
2023/08/20 04:51:46;;;;;;;13.27;6.15;;;;;;;19.67;100.00;102051.59;4790077;29;21934;-66
2023/08/20 04:54:14;;;;;;;15.55;6.47;;;;;;;19.71;100.00;102047.16;4789604;29;20114;-66
2023/08/20 04:56:42;;;;;;;14.95;5.90;;;;;;;19.68;100.00;102042.25;4807350;29;20445;-66
2023/08/20 04:59:11;;;;;;;12.35;5.75;;;;;;;19.68;100.00;102033.94;4807201;29;20055;-66
2023/08/20 05:02:05;;;;;;;12.75;6.90;;;;;;;19.77;100.00;102026.59;4795893;29;20491;-66
2023/08/20 05:04:45;;;;;;;11.90;5.88;;;;;;;19.77;100.00;102040.41;4801755;29;20050;-67
2023/08/20 05:07:14;;;;;;;11.02;5.82;;;;;;;19.72;100.00;102043.25;4785126;29;20050;-66
2023/08/20 05:09:42;;;;;;;10.18;5.35;;;;;;;19.73;100.00;102039.38;4801414;29;20054;-67
2023/08/20 05:12:09;;;;;;;11.52;5.32;;;;;;;19.78;100.00;102058.66;4776261;29;20106;-66
2023/08/20 05:14:37;;;;;;;12.40;5.22;;;;;;;19.84;100.00;102053.88;4792413;29;20062;-66
2023/08/20 05:17:05;;;;;;;11.57;5.82;;;;;;;19.88;100.00;102047.44;4791090;29;20419;-66
2023/08/20 05:19:33;;;;;;;11.27;5.93;;;;;;;19.92;100.00;102053.19;4791534;29;20393;-66
2023/08/20 05:22:01;;;;;;;12.55;5.22;;;;;;;19.96;100.00;102055.06;4776502;29;20496;-66
2023/08/20 05:24:33;;;;;;;11.63;4.97;;;;;;;19.98;100.00;102063.84;4791304;29;20050;-66
2023/08/20 05:27:19;;;;;;;10.65;5.47;;;;;;;19.99;100.00;102062.75;4791263;29;20065;-66
2023/08/20 05:29:50;;;;;;;11.93;5.20;;;;;;;20.01;100.00;102070.72;4776862;29;20054;-66
2023/08/20 05:32:20;;;;;;;10.68;5.43;;;;;;;20.01;100.00;102081.78;4761039;29;20062;-67
2023/08/20 05:34:48;;;;;;;13.23;6.22;;;;;;;19.94;100.00;102081.34;4794963;29;20066;-66
2023/08/20 05:37:15;;;;;;;12.13;5.50;;;;;;;19.86;100.00;102082.88;4806452;29;20547;-66
2023/08/20 05:39:44;;;;;;;12.30;5.60;;;;;;;19.80;100.00;102081.31;4781319;29;20046;-66
2023/08/20 05:42:13;;;;;;;13.35;5.30;;;;;;;19.79;100.00;102077.72;4790386;29;20054;-66
2023/08/20 05:44:46;;;;;;;10.95;4.80;;;;;;;19.81;100.00;102088.47;4812674;29;20538;-67
2023/08/20 05:47:19;;;;;;;10.18;5.30;;;;;;;19.84;100.00;102085.09;4804126;29;20058;-66
2023/08/20 05:49:48;;;;;;;15.63;5.78;;;;;;;19.86;100.00;102080.09;4790360;29;20412;-65
2023/08/20 05:52:17;;;;;;;12.35;5.00;;;;;;;19.87;100.00;102078.19;4789978;29;20051;-69
2023/08/20 05:54:45;;;;;;;14.38;5.45;;;;;;;19.88;100.00;102079.81;4802522;29;20050;-66
2023/08/20 05:57:13;;;;;;;12.63;5.93;;;;;;;19.83;100.00;102082.66;4789152;29;20047;-66
2023/08/20 05:59:43;;;;;;;10.13;4.78;;;;;;;19.82;100.00;102084.59;4778449;29;20047;-68
2023/08/20 06:02:17;;;;;;;12.80;5.20;;;;;;;19.85;100.00;102089.53;4785854;29;20058;-69
2023/08/20 06:04:45;;;;;;;13.23;5.90;;;;;;;19.86;100.00;102085.63;4804255;29;20078;-67
2023/08/20 06:07:13;;;;;;;14.77;6.18;;;;;;;19.83;100.00;102089.00;4802760;29;20064;-69
2023/08/20 06:09:41;;;;;;;18.13;6.18;;;;;;;19.80;100.00;102084.09;4773342;30;20061;-65
2023/08/20 06:12:08;;;;;;;13.68;6.35;;;;;;;19.78;100.00;102091.84;4790867;30;20134;-67
2023/08/20 06:14:36;;;;;;;16.10;6.47;;;;;;;19.77;100.00;102090.19;4796113;29;20411;-67
2023/08/20 06:17:04;;;;;;;12.38;5.18;;;;;;;19.77;100.00;102088.28;4797584;29;20058;-67
2023/08/20 06:19:32;;;;;;;10.55;5.30;;;;;;;19.78;100.00;102086.31;4809963;29;20046;-66
2023/08/20 06:22:00;;;;;;;12.10;5.03;;;;;;;19.82;100.00;102081.00;4794594;29;20058;-67
2023/08/20 06:24:28;;;;;;;15.23;5.03;;;;;;;19.85;100.00;102086.75;4794165;29;20404;-66
2023/08/20 06:26:56;;;;;;;15.73;5.20;;;;;;;19.88;100.00;102085.34;4793316;29;20050;-67
2023/08/20 06:29:23;;;;;;;12.95;4.63;;;;;;;19.90;100.00;102078.38;4778756;29;20057;-66
2023/08/20 06:31:51;;;;;;;15.57;5.35;;;;;;;19.96;100.00;102084.66;4809544;29;20410;-66
2023/08/20 06:34:19;;;;;;;10.07;4.00;;;;;;;20.00;100.00;102091.22;4793065;29;20046;-67
2023/08/20 06:36:47;;;;;;;13.60;4.68;;;;;;;20.00;100.00;102089.28;4784064;29;20057;-67
2023/08/20 06:39:15;;;;;;;12.55;4.28;;;;;;;20.06;100.00;102095.56;4803663;29;20058;-66
2023/08/20 06:41:44;;;;;;;12.52;4.75;;;;;;;20.10;100.00;102093.81;4808575;29;20432;-66
2023/08/20 06:44:20;;;;;;;15.32;5.60;;;;;;;20.11;100.00;102097.44;4812198;29;20050;-68
2023/08/20 06:46:47;;;;;;;16.45;5.55;;;;;;;20.10;100.00;102093.00;4816507;29;20496;-67
2023/08/20 06:49:15;;;;;;;18.63;6.55;;;;;;;20.10;100.00;102088.28;4808087;29;20099;-66
2023/08/20 06:51:43;;;;;;;18.65;5.70;;;;;;;20.11;100.00;102095.50;4806643;29;20452;-68
2023/08/20 06:54:11;;;;;;;18.52;5.30;;;;;;;20.11;100.00;102100.22;4802537;29;20047;-67
2023/08/20 06:56:39;;;;;;;17.00;5.75;;;;;;;20.11;100.00;102102.97;4810741;29;20075;-68
2023/08/20 06:59:08;;;;;;;16.42;4.68;;;;;;;20.12;100.00;102099.88;4811952;29;20050;-68
2023/08/20 07:01:35;;;;;;;20.90;5.55;;;;;;;20.15;100.00;102102.03;4798282;29;20104;-67
2023/08/20 07:04:03;;;;;;;12.93;5.13;;;;;;;20.14;100.00;102094.88;4806341;29;20058;-67
2023/08/20 07:06:31;;;;;;;12.70;4.57;;;;;;;20.13;100.00;102097.94;4819910;29;20066;-66
2023/08/20 07:08:59;;;;;;;16.05;5.00;;;;;;;20.13;100.00;102097.94;4803929;29;20059;-67
2023/08/20 07:11:27;;;;;;;26.65;6.38;;;;;;;20.12;100.00;102099.06;4808135;29;20066;-67
2023/08/20 07:13:55;;;;;;;17.42;5.20;;;;;;;20.12;100.00;102101.84;4817585;29;20077;-67
2023/08/20 07:16:22;;;;;;;12.68;4.85;;;;;;;20.12;100.00;102104.59;4799064;29;20046;-66
2023/08/20 07:18:50;;;;;;;18.23;5.10;;;;;;;20.15;100.00;102106.75;4801351;29;20066;-68
2023/08/20 07:21:18;;;;;;;17.40;4.60;;;;;;;20.20;100.00;102109.44;4810798;29;20524;-67
2023/08/20 07:23:46;;;;;;;16.75;5.00;;;;;;;20.28;100.00;102102.41;4808117;29;20059;-66
2023/08/20 07:26:15;;;;;;;12.95;4.60;;;;;;;20.33;100.00;102103.16;4808630;29;20054;-66
2023/08/20 07:28:58;;;;;;;10.50;3.67;;;;;;;20.36;100.00;102101.72;4792202;29;20043;-66
2023/08/20 07:31:31;;;;;;;10.50;3.97;;;;;;;20.34;100.00;102099.25;4780319;29;20050;-66
2023/08/20 07:34:00;;;;;;;11.25;3.95;;;;;;;20.33;100.00;102100.38;4793032;29;20453;-66
2023/08/20 07:36:31;;;;;;;12.90;4.35;;;;;;;20.33;100.00;102107.88;4759942;30;20535;-66
2023/08/20 07:39:00;;;;;;;13.35;4.35;;;;;;;20.34;100.00;102103.97;4790986;29;20430;-65
2023/08/20 07:41:30;;;;;;;11.18;3.83;;;;;;;20.35;100.00;102100.91;4791138;30;20058;-64
2023/08/20 07:43:58;;;;;;;10.68;3.97;;;;;;;20.37;100.00;102109.72;4790856;30;20051;-65
2023/08/20 07:46:26;;;;;;;11.07;4.25;;;;;;;20.38;99.66;102114.13;4791216;30;20054;-66
2023/08/20 07:48:54;;;;;;;11.75;3.90;;;;;;;20.39;100.00;102112.16;4791386;30;20417;-66
2023/08/20 07:51:22;;;;;;;15.07;4.35;;;;;;;20.38;100.00;102111.34;4802979;30;20056;-61
2023/08/20 07:53:49;;;;;;;13.48;4.10;;;;;;;20.38;100.00;102111.34;4808494;30;20070;-59
2023/08/20 07:56:17;;;;;;;10.98;3.22;;;;;;;20.40;100.00;102111.88;4807526;29;20079;-62
2023/08/20 07:58:45;;;;;;;10.35;3.17;;;;;;;20.45;99.99;102121.22;4786040;30;20066;-65
2023/08/20 08:01:13;;;;;;;12.05;3.70;;;;;;;20.47;99.67;102124.50;4770240;30;20142;-64
2023/08/20 08:03:41;;;;;;;10.15;3.88;;;;;;;20.49;100.00;102125.00;4803085;30;20051;-63
2023/08/20 08:06:09;;;;;;;11.40;4.15;;;;;;;20.48;100.00;102118.66;4805149;30;20065;-64
2023/08/20 08:08:41;;;;;;;11.20;4.05;;;;;;;20.51;100.00;102131.06;4802925;29;20071;-64
2023/08/20 08:11:09;;;;;;;10.23;3.60;;;;;;;20.52;100.00;102128.00;4799253;30;20126;-63
2023/08/20 08:13:37;;;;;;;8.90;3.33;;;;;;;20.55;99.57;102134.91;4776766;30;20047;-65
2023/08/20 08:16:05;;;;;;;10.88;3.42;;;;;;;20.57;98.87;102133.50;4774281;30;20516;-66
2023/08/20 08:18:32;;;;;;;8.25;3.33;;;;;;;20.59;98.77;102127.66;4774093;30;20442;-65
2023/08/20 08:21:00;;;;;;;10.23;3.65;;;;;;;20.62;99.61;102127.03;4790424;29;20061;-67
2023/08/20 08:23:28;;;;;;;11.98;3.22;;;;;;;20.64;98.28;102139.47;4774746;30;20055;-66
2023/08/20 08:25:57;;;;;;;10.82;3.03;;;;;;;20.66;97.77;102133.63;4790556;29;20066;-65
2023/08/20 08:28:24;;;;;;;6.80;3.20;;;;;;;20.68;97.79;102131.34;4790356;30;20047;-66
2023/08/20 08:30:52;;;;;;;8.90;3.13;;;;;;;20.71;97.01;102141.84;4789907;30;20058;-66
2023/08/20 08:33:20;;;;;;;9.82;3.58;;;;;;;20.73;96.97;102142.34;4789817;29;20059;-66
2023/08/20 08:35:48;;;;;;;9.18;3.30;;;;;;;20.77;97.40;102148.91;4803288;29;20070;-65
2023/08/20 08:38:15;;;;;;;9.57;3.50;;;;;;;20.80;97.34;102139.97;4791396;29;20070;-65
2023/08/20 08:40:43;;;;;;;12.07;3.53;;;;;;;20.83;98.17;102136.63;4776213;29;20419;-66
2023/08/20 08:43:16;;;;;;;9.43;3.50;;;;;;;20.87;98.13;102145.13;4776997;29;20058;-65
2023/08/20 08:45:50;;;;;;;10.25;3.83;;;;;;;20.91;97.86;102145.34;4792276;29;20059;-66
2023/08/20 08:48:18;;;;;;;8.50;2.92;;;;;;;20.92;96.69;102147.00;4807511;29;20508;-66
2023/08/20 08:50:47;;;;;;;8.73;3.05;;;;;;;20.95;95.81;102146.38;4807214;29;20051;-66
2023/08/20 08:53:15;;;;;;;9.27;3.28;;;;;;;20.97;94.29;102150.50;4807313;29;20610;-66
2023/08/20 08:55:42;;;;;;;9.55;3.13;;;;;;;21.00;94.13;102149.06;4791144;29;20077;-66
2023/08/20 08:58:11;;;;;;;8.60;2.92;;;;;;;21.03;94.10;102149.25;4791025;29;20110;-64
2023/08/20 09:00:39;;;;;;;8.02;2.70;;;;;;;21.07;93.56;102143.94;4807290;29;20054;-65
2023/08/20 09:03:07;;;;;;;11.23;2.78;;;;;;;21.10;93.12;102142.50;4807602;29;20103;-65
2023/08/20 09:05:50;;;;;;;5.32;2.35;;;;;;;21.14;91.98;102149.91;4807121;29;20065;-65
2023/08/20 09:08:22;;;;;;;10.77;3.28;;;;;;;21.17;91.24;102154.00;4790384;29;20047;-66
2023/08/20 09:10:54;;;;;;;8.82;2.78;;;;;;;21.19;90.26;102147.03;4791010;29;20055;-65
2023/08/20 09:13:39;;;;;;;7.57;2.65;;;;;;;21.23;89.76;102161.06;4790639;29;20104;-65
2023/08/20 09:16:08;;;;;;;7.60;2.47;;;;;;;21.27;89.19;102154.59;4791222;29;20500;-65
2023/08/20 09:18:46;;;;;;;5.35;2.20;;;;;;;21.32;87.98;102148.13;4807803;29;20054;-65
2023/08/20 09:21:14;;;;;;;4.50;1.88;;;;;;;21.35;85.72;102149.47;4807545;29;20058;-66
2023/08/20 09:23:46;;;;;;;4.05;1.92;;;;;;;21.38;83.86;102148.84;4807245;29;20050;-65
2023/08/20 09:26:14;;;;;;;6.15;2.78;;;;;;;21.40;83.05;102141.88;4808006;29;20496;-66
2023/08/20 09:28:44;;;;;;;7.55;2.92;;;;;;;21.48;82.95;102154.22;4792642;29;20054;-65
2023/08/20 09:31:12;;;;;;;5.78;2.17;;;;;;;21.52;81.18;102152.47;4791817;29;20419;-66
2023/08/20 09:33:50;;;;;;;3.70;1.48;;;;;;;21.54;80.47;102152.97;4776016;29;20107;-66
2023/08/20 09:36:18;;;;;;;5.10;2.10;;;;;;;21.56;77.53;102156.25;4806834;29;20127;-66
2023/08/20 09:38:48;;;;;;;5.45;1.88;;;;;;;21.60;77.55;102151.75;4791026;29;20069;-66
2023/08/20 09:41:18;;;;;;;3.63;1.73;;;;;;;21.63;77.71;102148.34;4792174;29;20103;-66
2023/08/20 09:43:46;;;;;;;3.83;1.65;;;;;;;21.67;76.12;102154.91;4792615;29;20050;-66
2023/08/20 09:46:16;;;;;;;2.60;1.50;;;;;;;21.70;74.82;102154.28;4791460;29;20058;-66
2023/08/20 09:48:46;;;;;;;4.70;1.65;;;;;;;21.73;75.65;102154.81;4790919;29;20054;-66
2023/08/20 09:51:17;;;;;;;4.70;1.73;;;;;;;21.78;76.44;102151.91;4791274;29;20065;-66
2023/08/20 09:53:50;;;;;;;5.63;1.60;;;;;;;21.80;76.57;102161.56;4780004;29;20114;-65
2023/08/20 09:56:29;;;;;;;3.63;1.75;;;;;;;21.83;75.66;102149.00;4794068;29;20127;-65
2023/08/20 09:59:01;;;;;;;4.68;1.60;;;;;;;21.85;73.46;102155.06;4791316;29;20489;-66
2023/08/20 10:01:29;;;;;;;5.50;1.60;;;;;;;21.89;71.78;102164.44;4791047;29;20412;-66
2023/08/20 10:03:57;;;;;;;4.18;1.58;;;;;;;21.92;72.47;102155.47;4775756;29;20065;-65
2023/08/20 10:06:25;;;;;;;5.35;1.48;;;;;;;21.98;73.54;102154.19;4806739;29;20106;-66
2023/08/20 10:08:54;;;;;;;1.75;1.05;;;;;;;22.02;71.14;102152.44;4790753;29;20083;-66
2023/08/20 10:11:21;;;;;;;2.70;1.35;;;;;;;22.08;69.16;102162.31;4806606;29;20058;-66
2023/08/20 10:13:49;;;;;;;5.03;1.45;;;;;;;22.12;68.84;102151.38;4806133;29;20058;-66
2023/08/20 10:16:23;;;;;;;3.25;1.38;;;;;;;22.16;68.55;102151.59;4775672;29;20065;-66
2023/08/20 10:18:51;;;;;;;3.60;1.00;;;;;;;22.17;66.82;102151.25;4806724;29;20430;-67
2023/08/20 10:21:26;;;;;;;2.35;1.13;;;;;;;22.21;66.38;102157.06;4806089;29;20050;-65
2023/08/20 10:23:54;;;;;;;3.08;0.93;;;;;;;22.23;64.81;102152.00;4790550;29;20057;-65
2023/08/20 10:26:24;;;;;;;1.95;0.90;;;;;;;22.26;63.73;102152.19;4775265;29;20058;-66
2023/08/20 10:28:52;;;;;;;2.10;0.88;;;;;;;22.30;64.51;102150.44;4790519;29;20057;-67
2023/08/20 10:31:20;;;;;;;3.95;1.15;;;;;;;22.35;64.53;102149.47;4789951;29;20054;-67
2023/08/20 10:33:47;;;;;;;2.25;1.20;;;;;;;22.37;62.88;102152.78;4789906;29;20385;-67
2023/08/20 10:36:17;;;;;;;4.35;1.67;;;;;;;22.41;63.54;102152.94;4805941;29;20210;-66
2023/08/20 10:38:49;;;;;;;2.85;1.00;;;;;;;22.45;61.33;102152.00;4806079;29;20063;-66
2023/08/20 10:41:25;;;;;;;4.03;1.70;;;;;;;22.47;63.13;102154.47;4775219;29;20051;-65
2023/08/20 10:43:53;;;;;;;4.85;2.20;;;;;;;22.50;62.29;102153.81;4806192;29;20115;-67
2023/08/20 10:46:21;;;;;;;2.45;1.60;;;;;;;22.55;63.40;102154.50;4789894;29;20063;-66
2023/08/20 10:48:59;;;;;;;2.85;1.38;;;;;;;22.61;64.09;102146.03;4806493;29;20051;-66
2023/08/20 10:51:30;;;;;;;3.05;1.38;;;;;;;22.64;64.26;102156.53;4790322;29;20504;-66
2023/08/20 10:54:01;;;;;;;3.85;1.48;;;;;;;22.66;64.36;102160.63;4806455;29;20054;-66
2023/08/20 10:56:42;;;;;;;2.17;1.30;;;;;;;22.69;64.45;102154.44;4806394;29;20111;-66
2023/08/20 10:59:25;;;;;;;2.33;1.20;;;;;;;22.73;64.92;102160.19;4776082;29;20047;-66
2023/08/20 11:01:56;;;;;;;2.65;1.42;;;;;;;22.77;63.45;102161.16;4775690;29;20059;-66
2023/08/20 11:04:27;;;;;;;4.85;1.25;;;;;;;22.80;63.76;102160.56;4793728;29;20568;-65
2023/08/20 11:06:56;;;;;;;2.22;1.23;;;;;;;22.81;63.82;102166.94;4810155;29;20064;-65
2023/08/20 11:09:26;;;;;;;4.43;1.58;;;;;;;22.84;63.53;102155.16;4809645;29;20047;-66
2023/08/20 11:11:54;;;;;;;4.75;1.48;;;;;;;22.87;65.18;102158.13;4793621;29;20456;-65
2023/08/20 11:14:22;;;;;;;4.93;1.67;;;;;;;22.91;66.30;102155.53;4793188;29;20061;-65
2023/08/20 11:16:50;;;;;;;3.78;1.52;;;;;;;22.96;64.52;102158.97;4809622;29;20145;-64
2023/08/20 11:19:23;;;;;;;4.68;1.63;;;;;;;23.01;65.38;102160.03;4778193;29;20046;-66
2023/08/20 11:21:51;;;;;;;4.78;1.65;;;;;;;23.06;64.51;102159.88;4793054;29;20055;-66
2023/08/20 11:24:20;;;;;;;3.33;1.48;;;;;;;23.07;64.95;102153.19;4793223;29;20407;-66
2023/08/20 11:26:48;;;;;;;3.00;1.50;;;;;;;23.07;65.54;102150.41;4809133;29;20503;-66